sensor_id;sensor_type;location;lat;lon;timestamp;temperature;humidity
34873;DHT22;21084;51.098;14.506;2023-04-23T00:00:14;13.20;51.60
34873;DHT22;21084;51.098;14.506;2023-04-23T00:02:43;13.20;51.70
34873;DHT22;21084;51.098;14.506;2023-04-23T00:05:13;13.30;51.90
34873;DHT22;21084;51.098;14.506;2023-04-23T00:07:43;13.20;51.70
34873;DHT22;21084;51.098;14.506;2023-04-23T00:10:13;13.20;52.10
34873;DHT22;21084;51.098;14.506;2023-04-23T00:12:42;13.20;52.30
34873;DHT22;21084;51.098;14.506;2023-04-23T00:15:13;13.20;52.20
34873;DHT22;21084;51.098;14.506;2023-04-23T00:17:42;13.10;52.10
34873;DHT22;21084;51.098;14.506;2023-04-23T00:20:11;13.00;52.60
34873;DHT22;21084;51.098;14.506;2023-04-23T00:22:40;13.00;52.80
34873;DHT22;21084;51.098;14.506;2023-04-23T00:25:08;12.90;53.40
34873;DHT22;21084;51.098;14.506;2023-04-23T00:27:39;13.00;52.90
34873;DHT22;21084;51.098;14.506;2023-04-23T00:30:08;12.90;52.80
34873;DHT22;21084;51.098;14.506;2023-04-23T00:32:42;13.00;52.70
34873;DHT22;21084;51.098;14.506;2023-04-23T00:35:10;12.90;52.80
34873;DHT22;21084;51.098;14.506;2023-04-23T00:37:39;12.90;52.80
34873;DHT22;21084;51.098;14.506;2023-04-23T00:40:08;12.90;53.10
34873;DHT22;21084;51.098;14.506;2023-04-23T00:42:39;12.80;53.30
34873;DHT22;21084;51.098;14.506;2023-04-23T00:45:08;12.80;53.30
34873;DHT22;21084;51.098;14.506;2023-04-23T00:47:37;12.80;53.40
34873;DHT22;21084;51.098;14.506;2023-04-23T00:50:08;12.70;53.60
34873;DHT22;21084;51.098;14.506;2023-04-23T00:52:37;12.70;53.70
34873;DHT22;21084;51.098;14.506;2023-04-23T00:55:07;12.60;53.90
34873;DHT22;21084;51.098;14.506;2023-04-23T00:57:37;12.60;54.30
34873;DHT22;21084;51.098;14.506;2023-04-23T01:00:07;12.50;54.10
34873;DHT22;21084;51.098;14.506;2023-04-23T01:02:37;12.60;54.20
34873;DHT22;21084;51.098;14.506;2023-04-23T01:05:07;12.60;54.20
34873;DHT22;21084;51.098;14.506;2023-04-23T01:07:37;12.50;54.40
34873;DHT22;21084;51.098;14.506;2023-04-23T01:10:07;12.50;54.60
34873;DHT22;21084;51.098;14.506;2023-04-23T01:12:37;12.40;54.70
34873;DHT22;21084;51.098;14.506;2023-04-23T01:15:08;12.50;54.60
34873;DHT22;21084;51.098;14.506;2023-04-23T01:17:37;12.50;54.60
34873;DHT22;21084;51.098;14.506;2023-04-23T01:20:07;12.40;55.20
34873;DHT22;21084;51.098;14.506;2023-04-23T01:22:37;12.40;54.70
34873;DHT22;21084;51.098;14.506;2023-04-23T01:25:07;12.30;55.00
34873;DHT22;21084;51.098;14.506;2023-04-23T01:27:36;12.30;55.20
34873;DHT22;21084;51.098;14.506;2023-04-23T01:30:06;12.20;55.50
34873;DHT22;21084;51.098;14.506;2023-04-23T01:32:36;12.20;55.00
34873;DHT22;21084;51.098;14.506;2023-04-23T01:35:06;12.20;55.60
34873;DHT22;21084;51.098;14.506;2023-04-23T01:37:35;12.10;55.60
34873;DHT22;21084;51.098;14.506;2023-04-23T01:40:08;12.10;56.30
34873;DHT22;21084;51.098;14.506;2023-04-23T01:42:37;12.00;56.70
34873;DHT22;21084;51.098;14.506;2023-04-23T01:45:08;11.90;57.10
34873;DHT22;21084;51.098;14.506;2023-04-23T01:47:37;11.80;57.30
34873;DHT22;21084;51.098;14.506;2023-04-23T01:50:06;11.70;57.70
34873;DHT22;21084;51.098;14.506;2023-04-23T01:52:35;11.60;57.80
34873;DHT22;21084;51.098;14.506;2023-04-23T01:55:05;11.60;58.10
34873;DHT22;21084;51.098;14.506;2023-04-23T01:57:35;11.60;58.20
34873;DHT22;21084;51.098;14.506;2023-04-23T02:00:04;11.50;58.00
34873;DHT22;21084;51.098;14.506;2023-04-23T02:02:34;11.40;58.80
34873;DHT22;21084;51.098;14.506;2023-04-23T02:05:04;11.40;58.60
34873;DHT22;21084;51.098;14.506;2023-04-23T02:07:37;11.30;59.00
34873;DHT22;21084;51.098;14.506;2023-04-23T02:10:07;11.30;59.00
34873;DHT22;21084;51.098;14.506;2023-04-23T02:12:37;11.20;59.30
34873;DHT22;21084;51.098;14.506;2023-04-23T02:15:08;11.20;59.40
34873;DHT22;21084;51.098;14.506;2023-04-23T02:17:41;11.20;59.60
34873;DHT22;21084;51.098;14.506;2023-04-23T02:20:11;11.20;59.60
34873;DHT22;21084;51.098;14.506;2023-04-23T02:22:40;11.20;59.40
34873;DHT22;21084;51.098;14.506;2023-04-23T02:25:09;11.20;59.90
34873;DHT22;21084;51.098;14.506;2023-04-23T02:27:39;11.10;60.00
34873;DHT22;21084;51.098;14.506;2023-04-23T02:30:09;11.10;60.30
34873;DHT22;21084;51.098;14.506;2023-04-23T02:32:39;11.10;60.20
34873;DHT22;21084;51.098;14.506;2023-04-23T02:35:09;11.10;60.30
34873;DHT22;21084;51.098;14.506;2023-04-23T02:37:39;11.10;60.30
34873;DHT22;21084;51.098;14.506;2023-04-23T02:40:08;11.20;60.40
34873;DHT22;21084;51.098;14.506;2023-04-23T02:42:38;11.30;59.90
34873;DHT22;21084;51.098;14.506;2023-04-23T02:45:10;11.40;59.70
34873;DHT22;21084;51.098;14.506;2023-04-23T02:47:39;11.50;59.20
34873;DHT22;21084;51.098;14.506;2023-04-23T02:50:08;11.60;59.60
34873;DHT22;21084;51.098;14.506;2023-04-23T02:52:37;11.70;58.90
34873;DHT22;21084;51.098;14.506;2023-04-23T02:55:07;11.80;58.70
34873;DHT22;21084;51.098;14.506;2023-04-23T02:57:37;11.90;58.60
34873;DHT22;21084;51.098;14.506;2023-04-23T03:00:08;11.90;58.30
34873;DHT22;21084;51.098;14.506;2023-04-23T03:02:40;12.00;58.10
34873;DHT22;21084;51.098;14.506;2023-04-23T03:05:09;12.10;57.70
34873;DHT22;21084;51.098;14.506;2023-04-23T03:07:38;12.10;58.00
34873;DHT22;21084;51.098;14.506;2023-04-23T03:10:08;12.10;58.00
34873;DHT22;21084;51.098;14.506;2023-04-23T03:12:37;12.10;57.70
34873;DHT22;21084;51.098;14.506;2023-04-23T03:15:09;12.20;57.90
34873;DHT22;21084;51.098;14.506;2023-04-23T03:17:38;12.20;57.20
34873;DHT22;21084;51.098;14.506;2023-04-23T03:20:08;12.30;56.90
34873;DHT22;21084;51.098;14.506;2023-04-23T03:22:38;12.30;57.80
34873;DHT22;21084;51.098;14.506;2023-04-23T03:25:07;12.30;57.30
34873;DHT22;21084;51.098;14.506;2023-04-23T03:27:37;12.30;57.40
34873;DHT22;21084;51.098;14.506;2023-04-23T03:30:10;12.60;56.60
34873;DHT22;21084;51.098;14.506;2023-04-23T03:32:38;12.50;56.30
34873;DHT22;21084;51.098;14.506;2023-04-23T03:35:08;12.60;56.70
34873;DHT22;21084;51.098;14.506;2023-04-23T03:37:37;12.70;56.20
34873;DHT22;21084;51.098;14.506;2023-04-23T03:40:06;12.60;55.80
34873;DHT22;21084;51.098;14.506;2023-04-23T03:42:36;12.70;56.00
34873;DHT22;21084;51.098;14.506;2023-04-23T03:45:06;12.70;56.40
34873;DHT22;21084;51.098;14.506;2023-04-23T03:47:36;12.60;56.60
34873;DHT22;21084;51.098;14.506;2023-04-23T03:50:05;12.60;56.50
34873;DHT22;21084;51.098;14.506;2023-04-23T03:52:35;12.50;57.10
34873;DHT22;21084;51.098;14.506;2023-04-23T03:55:04;12.60;56.00
34873;DHT22;21084;51.098;14.506;2023-04-23T03:57:33;12.60;56.40
34873;DHT22;21084;51.098;14.506;2023-04-23T04:00:03;12.60;56.80
34873;DHT22;21084;51.098;14.506;2023-04-23T04:02:36;12.50;56.40
34873;DHT22;21084;51.098;14.506;2023-04-23T04:05:06;12.50;56.80
34873;DHT22;21084;51.098;14.506;2023-04-23T04:07:35;12.40;56.80
34873;DHT22;21084;51.098;14.506;2023-04-23T04:10:05;12.40;56.60
34873;DHT22;21084;51.098;14.506;2023-04-23T04:12:34;12.40;56.60
34873;DHT22;21084;51.098;14.506;2023-04-23T04:15:04;12.40;56.80
34873;DHT22;21084;51.098;14.506;2023-04-23T04:17:33;12.40;56.90
34873;DHT22;21084;51.098;14.506;2023-04-23T04:20:03;12.40;56.50
34873;DHT22;21084;51.098;14.506;2023-04-23T04:22:34;12.40;56.60
34873;DHT22;21084;51.098;14.506;2023-04-23T04:25:03;12.50;56.80
34873;DHT22;21084;51.098;14.506;2023-04-23T04:27:33;12.50;56.70
34873;DHT22;21084;51.098;14.506;2023-04-23T04:30:02;12.50;56.20
34873;DHT22;21084;51.098;14.506;2023-04-23T04:32:31;12.70;56.20
34873;DHT22;21084;51.098;14.506;2023-04-23T04:35:00;12.70;55.70
34873;DHT22;21084;51.098;14.506;2023-04-23T04:37:30;12.80;55.20
34873;DHT22;21084;51.098;14.506;2023-04-23T04:40:00;13.00;54.60
34873;DHT22;21084;51.098;14.506;2023-04-23T04:42:29;13.10;54.30
34873;DHT22;21084;51.098;14.506;2023-04-23T04:44:57;13.20;54.30
34873;DHT22;21084;51.098;14.506;2023-04-23T04:47:26;13.30;54.10
34873;DHT22;21084;51.098;14.506;2023-04-23T04:49:55;13.30;53.80
34873;DHT22;21084;51.098;14.506;2023-04-23T04:52:24;13.40;54.00
34873;DHT22;21084;51.098;14.506;2023-04-23T04:54:54;13.30;53.90
34873;DHT22;21084;51.098;14.506;2023-04-23T04:57:23;13.30;54.00
34873;DHT22;21084;51.098;14.506;2023-04-23T04:59:51;13.40;54.00
34873;DHT22;21084;51.098;14.506;2023-04-23T05:02:20;13.40;54.00
34873;DHT22;21084;51.098;14.506;2023-04-23T05:04:49;13.40;54.10
34873;DHT22;21084;51.098;14.506;2023-04-23T05:07:18;13.40;54.10
34873;DHT22;21084;51.098;14.506;2023-04-23T05:09:47;13.40;54.20
34873;DHT22;21084;51.098;14.506;2023-04-23T05:12:17;13.30;54.10
34873;DHT22;21084;51.098;14.506;2023-04-23T05:14:46;13.30;54.60
34873;DHT22;21084;51.098;14.506;2023-04-23T05:17:14;13.30;55.60
34873;DHT22;21084;51.098;14.506;2023-04-23T05:19:43;13.20;55.20
34873;DHT22;21084;51.098;14.506;2023-04-23T05:22:11;13.10;56.50
34873;DHT22;21084;51.098;14.506;2023-04-23T05:24:40;13.00;57.50
34873;DHT22;21084;51.098;14.506;2023-04-23T05:27:09;13.00;58.40
34873;DHT22;21084;51.098;14.506;2023-04-23T05:29:39;13.00;58.40
34873;DHT22;21084;51.098;14.506;2023-04-23T05:32:08;13.00;58.90
34873;DHT22;21084;51.098;14.506;2023-04-23T05:34:37;13.10;58.50
34873;DHT22;21084;51.098;14.506;2023-04-23T05:37:05;13.20;58.40
34873;DHT22;21084;51.098;14.506;2023-04-23T05:39:34;13.30;57.90
34873;DHT22;21084;51.098;14.506;2023-04-23T05:42:03;13.40;57.70
34873;DHT22;21084;51.098;14.506;2023-04-23T05:44:32;13.60;57.30
34873;DHT22;21084;51.098;14.506;2023-04-23T05:47:02;13.70;56.20
34873;DHT22;21084;51.098;14.506;2023-04-23T05:49:32;13.80;56.00
34873;DHT22;21084;51.098;14.506;2023-04-23T05:52:01;13.90;56.70
34873;DHT22;21084;51.098;14.506;2023-04-23T05:54:30;14.00;56.50
34873;DHT22;21084;51.098;14.506;2023-04-23T05:56:58;14.10;55.90
34873;DHT22;21084;51.098;14.506;2023-04-23T05:59:29;14.30;56.80
34873;DHT22;21084;51.098;14.506;2023-04-23T06:01:58;14.40;55.60
34873;DHT22;21084;51.098;14.506;2023-04-23T06:04:28;14.50;55.30
34873;DHT22;21084;51.098;14.506;2023-04-23T06:06:59;14.60;55.00
34873;DHT22;21084;51.098;14.506;2023-04-23T06:09:28;14.70;54.40
34873;DHT22;21084;51.098;14.506;2023-04-23T06:12:01;14.80;54.60
34873;DHT22;21084;51.098;14.506;2023-04-23T06:14:33;15.00;54.40
34873;DHT22;21084;51.098;14.506;2023-04-23T06:17:03;15.20;54.30
34873;DHT22;21084;51.098;14.506;2023-04-23T06:19:33;15.30;53.70
34873;DHT22;21084;51.098;14.506;2023-04-23T06:22:01;15.40;53.80
34873;DHT22;21084;51.098;14.506;2023-04-23T06:24:30;15.50;53.10
34873;DHT22;21084;51.098;14.506;2023-04-23T06:26:59;15.60;52.80
34873;DHT22;21084;51.098;14.506;2023-04-23T06:29:28;15.70;53.00
34873;DHT22;21084;51.098;14.506;2023-04-23T06:32:00;15.70;52.50
34873;DHT22;21084;51.098;14.506;2023-04-23T06:34:29;15.90;53.30
34873;DHT22;21084;51.098;14.506;2023-04-23T06:36:59;16.10;53.00
34873;DHT22;21084;51.098;14.506;2023-04-23T06:39:28;16.20;52.20
34873;DHT22;21084;51.098;14.506;2023-04-23T06:41:57;16.40;52.10
34873;DHT22;21084;51.098;14.506;2023-04-23T06:44:26;16.50;51.90
34873;DHT22;21084;51.098;14.506;2023-04-23T06:46:54;16.60;52.10
34873;DHT22;21084;51.098;14.506;2023-04-23T06:49:23;16.80;51.50
34873;DHT22;21084;51.098;14.506;2023-04-23T06:51:52;17.10;51.60
34873;DHT22;21084;51.098;14.506;2023-04-23T06:54:25;17.60;50.60
34873;DHT22;21084;51.098;14.506;2023-04-23T06:56:53;17.70;50.20
34873;DHT22;21084;51.098;14.506;2023-04-23T06:59:22;17.90;49.40
34873;DHT22;21084;51.098;14.506;2023-04-23T07:01:51;18.20;49.40
34873;DHT22;21084;51.098;14.506;2023-04-23T07:04:20;18.00;48.80
34873;DHT22;21084;51.098;14.506;2023-04-23T07:06:49;17.80;49.60
34873;DHT22;21084;51.098;14.506;2023-04-23T07:09:17;17.90;49.40
34873;DHT22;21084;51.098;14.506;2023-04-23T07:11:48;18.20;50.10
34873;DHT22;21084;51.098;14.506;2023-04-23T07:14:17;18.30;48.90
34873;DHT22;21084;51.098;14.506;2023-04-23T07:16:45;18.40;48.80
34873;DHT22;21084;51.098;14.506;2023-04-23T07:19:14;18.20;48.60
34873;DHT22;21084;51.098;14.506;2023-04-23T07:21:42;18.20;48.60
34873;DHT22;21084;51.098;14.506;2023-04-23T07:24:11;18.00;49.30
34873;DHT22;21084;51.098;14.506;2023-04-23T07:26:39;18.20;49.00
34873;DHT22;21084;51.098;14.506;2023-04-23T07:29:09;18.80;48.30
34873;DHT22;21084;51.098;14.506;2023-04-23T07:31:40;18.60;48.20
34873;DHT22;21084;51.098;14.506;2023-04-23T07:34:09;19.00;47.70
34873;DHT22;21084;51.098;14.506;2023-04-23T07:36:37;18.40;47.30
34873;DHT22;21084;51.098;14.506;2023-04-23T07:39:06;18.60;48.60
34873;DHT22;21084;51.098;14.506;2023-04-23T07:41:35;18.50;48.80
34873;DHT22;21084;51.098;14.506;2023-04-23T07:44:03;18.20;48.40
34873;DHT22;21084;51.098;14.506;2023-04-23T07:46:33;17.70;47.60
34873;DHT22;21084;51.098;14.506;2023-04-23T07:49:02;17.50;49.10
34873;DHT22;21084;51.098;14.506;2023-04-23T07:51:34;17.10;48.70
34873;DHT22;21084;51.098;14.506;2023-04-23T07:54:06;17.30;50.00
34873;DHT22;21084;51.098;14.506;2023-04-23T07:56:35;17.80;48.70
34873;DHT22;21084;51.098;14.506;2023-04-23T07:59:03;17.40;48.70
34873;DHT22;21084;51.098;14.506;2023-04-23T08:01:34;17.90;49.60
34873;DHT22;21084;51.098;14.506;2023-04-23T08:04:02;17.40;48.30
34873;DHT22;21084;51.098;14.506;2023-04-23T08:06:31;17.30;49.60
34873;DHT22;21084;51.098;14.506;2023-04-23T08:09:01;17.20;50.20
34873;DHT22;21084;51.098;14.506;2023-04-23T08:11:32;17.10;50.00
34873;DHT22;21084;51.098;14.506;2023-04-23T08:14:01;17.50;50.50
34873;DHT22;21084;51.098;14.506;2023-04-23T08:16:29;17.60;50.20
34873;DHT22;21084;51.098;14.506;2023-04-23T08:19:00;17.80;49.00
34873;DHT22;21084;51.098;14.506;2023-04-23T08:21:32;17.80;49.80
34873;DHT22;21084;51.098;14.506;2023-04-23T08:24:01;17.90;48.70
34873;DHT22;21084;51.098;14.506;2023-04-23T08:26:30;18.00;48.40
34873;DHT22;21084;51.098;14.506;2023-04-23T08:28:59;18.10;48.90
34873;DHT22;21084;51.098;14.506;2023-04-23T08:31:28;17.50;48.80
34873;DHT22;21084;51.098;14.506;2023-04-23T08:33:57;17.60;50.00
34873;DHT22;21084;51.098;14.506;2023-04-23T08:36:28;17.90;49.80
34873;DHT22;21084;51.098;14.506;2023-04-23T08:38:56;18.00;48.90
34873;DHT22;21084;51.098;14.506;2023-04-23T08:41:32;18.40;47.40
34873;DHT22;21084;51.098;14.506;2023-04-23T08:44:06;18.70;49.20
34873;DHT22;21084;51.098;14.506;2023-04-23T08:46:41;19.10;48.50
34873;DHT22;21084;51.098;14.506;2023-04-23T08:49:14;19.10;48.30
34873;DHT22;21084;51.098;14.506;2023-04-23T08:51:49;19.40;48.50
34873;DHT22;21084;51.098;14.506;2023-04-23T08:54:21;19.20;46.50
34873;DHT22;21084;51.098;14.506;2023-04-23T08:56:54;19.60;47.70
34873;DHT22;21084;51.098;14.506;2023-04-23T08:59:24;19.10;47.30
34873;DHT22;21084;51.098;14.506;2023-04-23T09:01:54;18.80;48.40
34873;DHT22;21084;51.098;14.506;2023-04-23T09:04:23;19.00;47.50
34873;DHT22;21084;51.098;14.506;2023-04-23T09:06:54;19.20;48.10
34873;DHT22;21084;51.098;14.506;2023-04-23T09:09:23;19.50;48.90
34873;DHT22;21084;51.098;14.506;2023-04-23T09:11:54;19.30;47.10
34873;DHT22;21084;51.098;14.506;2023-04-23T09:14:23;19.30;48.20
34873;DHT22;21084;51.098;14.506;2023-04-23T09:16:53;19.30;47.30
34873;DHT22;21084;51.098;14.506;2023-04-23T09:19:24;19.80;47.70
34873;DHT22;21084;51.098;14.506;2023-04-23T09:21:56;20.00;47.20
34873;DHT22;21084;51.098;14.506;2023-04-23T09:24:27;20.00;46.10
34873;DHT22;21084;51.098;14.506;2023-04-23T09:26:57;20.10;46.40
34873;DHT22;21084;51.098;14.506;2023-04-23T09:29:26;20.20;46.40
34873;DHT22;21084;51.098;14.506;2023-04-23T09:31:57;20.00;46.00
34873;DHT22;21084;51.098;14.506;2023-04-23T09:34:34;19.50;46.70
34873;DHT22;21084;51.098;14.506;2023-04-23T09:37:05;19.20;47.90
34873;DHT22;21084;51.098;14.506;2023-04-23T09:39:34;18.90;48.80
34873;DHT22;21084;51.098;14.506;2023-04-23T09:42:04;19.00;48.60
34873;DHT22;21084;51.098;14.506;2023-04-23T09:44:36;19.10;47.50
34873;DHT22;21084;51.098;14.506;2023-04-23T09:47:05;18.60;48.30
34873;DHT22;21084;51.098;14.506;2023-04-23T09:49:44;18.10;49.40
34873;DHT22;21084;51.098;14.506;2023-04-23T09:52:15;17.80;51.00
34873;DHT22;21084;51.098;14.506;2023-04-23T09:54:45;17.60;50.80
34873;DHT22;21084;51.098;14.506;2023-04-23T09:57:14;17.80;51.50
34873;DHT22;21084;51.098;14.506;2023-04-23T09:59:43;17.90;50.90
34873;DHT22;21084;51.098;14.506;2023-04-23T10:02:26;17.90;51.10
34873;DHT22;21084;51.098;14.506;2023-04-23T10:04:55;17.80;50.60
34873;DHT22;21084;51.098;14.506;2023-04-23T10:07:42;17.80;51.50
34873;DHT22;21084;51.098;14.506;2023-04-23T10:10:11;17.80;51.70
34873;DHT22;21084;51.098;14.506;2023-04-23T10:12:41;17.90;51.40
34873;DHT22;21084;51.098;14.506;2023-04-23T10:15:22;18.90;50.90
34873;DHT22;21084;51.098;14.506;2023-04-23T10:17:53;19.90;49.40
34873;DHT22;21084;51.098;14.506;2023-04-23T10:20:22;20.20;48.90
34873;DHT22;21084;51.098;14.506;2023-04-23T10:22:53;20.80;46.90
34873;DHT22;21084;51.098;14.506;2023-04-23T10:25:23;21.00;45.60
34873;DHT22;21084;51.098;14.506;2023-04-23T10:27:54;21.00;45.60
34873;DHT22;21084;51.098;14.506;2023-04-23T10:30:23;20.20;46.10
34873;DHT22;21084;51.098;14.506;2023-04-23T10:32:53;19.60;47.10
34873;DHT22;21084;51.098;14.506;2023-04-23T10:35:22;19.40;48.30
34873;DHT22;21084;51.098;14.506;2023-04-23T10:37:52;18.90;48.10
34873;DHT22;21084;51.098;14.506;2023-04-23T10:40:25;18.90;49.60
34873;DHT22;21084;51.098;14.506;2023-04-23T10:42:56;18.50;49.00
34873;DHT22;21084;51.098;14.506;2023-04-23T10:45:25;18.30;49.80
34873;DHT22;21084;51.098;14.506;2023-04-23T10:47:57;18.20;50.60
34873;DHT22;21084;51.098;14.506;2023-04-23T10:50:28;18.00;51.20
34873;DHT22;21084;51.098;14.506;2023-04-23T10:52:58;17.90;51.80
34873;DHT22;21084;51.098;14.506;2023-04-23T10:55:28;17.60;52.20
34873;DHT22;21084;51.098;14.506;2023-04-23T10:57:57;17.50;52.60
34873;DHT22;21084;51.098;14.506;2023-04-23T11:00:41;17.10;53.30
34873;DHT22;21084;51.098;14.506;2023-04-23T11:03:31;16.90;54.20
34873;DHT22;21084;51.098;14.506;2023-04-23T11:06:01;16.60;55.40
34873;DHT22;21084;51.098;14.506;2023-04-23T11:08:32;16.40;56.20
34873;DHT22;21084;51.098;14.506;2023-04-23T11:11:06;16.20;57.10
34873;DHT22;21084;51.098;14.506;2023-04-23T11:13:35;16.10;57.00
34873;DHT22;21084;51.098;14.506;2023-04-23T11:16:14;16.00;57.50
34873;DHT22;21084;51.098;14.506;2023-04-23T11:18:57;15.90;57.80
34873;DHT22;21084;51.098;14.506;2023-04-23T11:21:59;15.90;59.40
34873;DHT22;21084;51.098;14.506;2023-04-23T11:24:34;15.90;58.90
34873;DHT22;21084;51.098;14.506;2023-04-23T11:27:09;15.90;58.90
34873;DHT22;21084;51.098;14.506;2023-04-23T11:29:39;16.00;58.70
34873;DHT22;21084;51.098;14.506;2023-04-23T11:32:10;16.10;58.70
34873;DHT22;21084;51.098;14.506;2023-04-23T11:34:40;16.30;60.10
34873;DHT22;21084;51.098;14.506;2023-04-23T11:37:10;16.40;58.80
34873;DHT22;21084;51.098;14.506;2023-04-23T11:39:42;16.80;58.40
34873;DHT22;21084;51.098;14.506;2023-04-23T11:42:11;17.40;57.50
34873;DHT22;21084;51.098;14.506;2023-04-23T11:44:42;17.90;55.80
34873;DHT22;21084;51.098;14.506;2023-04-23T11:47:11;18.20;55.40
34873;DHT22;21084;51.098;14.506;2023-04-23T11:49:41;18.40;54.00
34873;DHT22;21084;51.098;14.506;2023-04-23T11:52:11;18.30;53.60
34873;DHT22;21084;51.098;14.506;2023-04-23T11:54:43;18.50;53.70
34873;DHT22;21084;51.098;14.506;2023-04-23T11:57:12;19.10;54.00
34873;DHT22;21084;51.098;14.506;2023-04-23T11:59:41;19.40;52.20
34873;DHT22;21084;51.098;14.506;2023-04-23T12:02:10;20.10;52.00
34873;DHT22;21084;51.098;14.506;2023-04-23T12:04:39;21.30;49.80
34873;DHT22;21084;51.098;14.506;2023-04-23T12:07:07;20.60;49.20
34873;DHT22;21084;51.098;14.506;2023-04-23T12:09:57;20.90;50.20
34873;DHT22;21084;51.098;14.506;2023-04-23T12:12:32;21.50;48.00
34873;DHT22;21084;51.098;14.506;2023-04-23T12:15:05;21.10;47.20
34873;DHT22;21084;51.098;14.506;2023-04-23T12:17:34;20.80;48.70
34873;DHT22;21084;51.098;14.506;2023-04-23T12:20:03;20.20;49.30
34873;DHT22;21084;51.098;14.506;2023-04-23T12:22:33;19.50;50.20
34873;DHT22;21084;51.098;14.506;2023-04-23T12:25:04;19.00;51.90
34873;DHT22;21084;51.098;14.506;2023-04-23T12:27:38;18.60;51.60
34873;DHT22;21084;51.098;14.506;2023-04-23T12:30:09;18.50;52.20
34873;DHT22;21084;51.098;14.506;2023-04-23T12:32:40;18.20;52.00
34873;DHT22;21084;51.098;14.506;2023-04-23T12:35:09;18.10;53.20
34873;DHT22;21084;51.098;14.506;2023-04-23T12:37:38;18.10;53.50
34873;DHT22;21084;51.098;14.506;2023-04-23T12:40:09;18.10;53.80
34873;DHT22;21084;51.098;14.506;2023-04-23T12:42:38;18.00;53.60
34873;DHT22;21084;51.098;14.506;2023-04-23T12:45:08;17.80;53.00
34873;DHT22;21084;51.098;14.506;2023-04-23T12:47:37;17.60;53.80
34873;DHT22;21084;51.098;14.506;2023-04-23T12:50:06;17.40;54.00
34873;DHT22;21084;51.098;14.506;2023-04-23T12:52:35;17.20;54.00
34873;DHT22;21084;51.098;14.506;2023-04-23T12:55:04;16.90;54.70
34873;DHT22;21084;51.098;14.506;2023-04-23T12:57:35;16.70;55.70
34873;DHT22;21084;51.098;14.506;2023-04-23T13:00:05;16.60;56.70
34873;DHT22;21084;51.098;14.506;2023-04-23T13:02:35;16.70;57.30
34873;DHT22;21084;51.098;14.506;2023-04-23T13:05:04;17.00;57.40
34873;DHT22;21084;51.098;14.506;2023-04-23T13:07:33;17.00;56.50
34873;DHT22;21084;51.098;14.506;2023-04-23T13:10:02;17.10;57.20
34873;DHT22;21084;51.098;14.506;2023-04-23T13:12:31;17.10;57.30
34873;DHT22;21084;51.098;14.506;2023-04-23T13:15:02;17.00;57.60
34873;DHT22;21084;51.098;14.506;2023-04-23T13:17:32;17.00;58.80
34873;DHT22;21084;51.098;14.506;2023-04-23T13:20:00;16.80;57.30
34873;DHT22;21084;51.098;14.506;2023-04-23T13:22:31;16.70;57.90
34873;DHT22;21084;51.098;14.506;2023-04-23T13:24:59;16.50;58.40
34873;DHT22;21084;51.098;14.506;2023-04-23T13:27:28;16.30;60.00
34873;DHT22;21084;51.098;14.506;2023-04-23T13:29:57;16.20;60.90
34873;DHT22;21084;51.098;14.506;2023-04-23T13:32:27;16.00;61.10
34873;DHT22;21084;51.098;14.506;2023-04-23T13:34:58;15.70;62.50
34873;DHT22;21084;51.098;14.506;2023-04-23T13:37:30;15.60;64.20
34873;DHT22;21084;51.098;14.506;2023-04-23T13:40:00;15.50;64.20
34873;DHT22;21084;51.098;14.506;2023-04-23T13:42:29;15.60;64.40
34873;DHT22;21084;51.098;14.506;2023-04-23T13:44:57;15.80;65.60
34873;DHT22;21084;51.098;14.506;2023-04-23T13:47:27;16.00;66.30
34873;DHT22;21084;51.098;14.506;2023-04-23T13:49:59;16.30;66.40
34873;DHT22;21084;51.098;14.506;2023-04-23T13:52:29;16.40;65.80
34873;DHT22;21084;51.098;14.506;2023-04-23T13:54:57;16.20;65.10
34873;DHT22;21084;51.098;14.506;2023-04-23T13:57:26;16.20;66.00
34873;DHT22;21084;51.098;14.506;2023-04-23T13:59:55;16.10;65.10
34873;DHT22;21084;51.098;14.506;2023-04-23T14:02:23;15.90;65.40
34873;DHT22;21084;51.098;14.506;2023-04-23T14:04:53;15.80;65.30
34873;DHT22;21084;51.098;14.506;2023-04-23T14:07:22;15.50;65.00
34873;DHT22;21084;51.098;14.506;2023-04-23T14:09:50;15.30;66.30
34873;DHT22;21084;51.098;14.506;2023-04-23T14:12:19;15.30;67.70
34873;DHT22;21084;51.098;14.506;2023-04-23T14:14:47;15.20;66.90
34873;DHT22;21084;51.098;14.506;2023-04-23T14:17:16;15.00;67.70
34873;DHT22;21084;51.098;14.506;2023-04-23T14:19:45;14.90;67.40
34873;DHT22;21084;51.098;14.506;2023-04-23T14:22:15;14.70;66.40
34873;DHT22;21084;51.098;14.506;2023-04-23T14:24:44;14.70;68.60
34873;DHT22;21084;51.098;14.506;2023-04-23T14:27:13;14.70;67.50
34873;DHT22;21084;51.098;14.506;2023-04-23T14:29:50;14.80;68.60
34873;DHT22;21084;51.098;14.506;2023-04-23T14:32:19;15.00;67.30
34873;DHT22;21084;51.098;14.506;2023-04-23T14:34:48;15.10;66.60
34873;DHT22;21084;51.098;14.506;2023-04-23T14:37:18;15.30;66.90
34873;DHT22;21084;51.098;14.506;2023-04-23T14:39:46;15.60;67.50
34873;DHT22;21084;51.098;14.506;2023-04-23T14:42:15;15.70;65.00
34873;DHT22;21084;51.098;14.506;2023-04-23T14:44:44;15.80;64.90
34873;DHT22;21084;51.098;14.506;2023-04-23T14:47:13;16.00;65.60
34873;DHT22;21084;51.098;14.506;2023-04-23T14:49:42;16.00;66.70
34873;DHT22;21084;51.098;14.506;2023-04-23T14:52:12;16.30;66.00
34873;DHT22;21084;51.098;14.506;2023-04-23T14:54:41;16.40;64.80
34873;DHT22;21084;51.098;14.506;2023-04-23T14:57:10;16.60;65.00
34873;DHT22;21084;51.098;14.506;2023-04-23T14:59:38;16.90;64.80
34873;DHT22;21084;51.098;14.506;2023-04-23T15:02:07;17.20;64.20
34873;DHT22;21084;51.098;14.506;2023-04-23T15:04:38;17.60;64.20
34873;DHT22;21084;51.098;14.506;2023-04-23T15:07:07;18.00;64.40
34873;DHT22;21084;51.098;14.506;2023-04-23T15:09:35;18.60;62.00
34873;DHT22;21084;51.098;14.506;2023-04-23T15:12:47;18.80;60.80
34873;DHT22;21084;51.098;14.506;2023-04-23T15:15:21;19.50;61.10
34873;DHT22;21084;51.098;14.506;2023-04-23T15:18:09;20.50;59.00
34873;DHT22;21084;51.098;14.506;2023-04-23T15:20:38;21.40;56.00
34873;DHT22;21084;51.098;14.506;2023-04-23T15:23:08;22.10;55.10
34873;DHT22;21084;51.098;14.506;2023-04-23T15:25:36;21.60;52.50
34873;DHT22;21084;51.098;14.506;2023-04-23T15:28:07;21.10;52.90
34873;DHT22;21084;51.098;14.506;2023-04-23T15:30:36;20.80;54.00
34873;DHT22;21084;51.098;14.506;2023-04-23T15:33:05;20.10;55.10